Pendicherry, Pondicherry Airport (VOPC)

NamePondicherry Airport
CityPendicherry
CountryIndia
ICAOVOPC
IATAPNY
Altitude41 m
CoordinatesGoogle Map
Live Air TrafficLiveATC.net
METARVOPC 240800Z 25003KT 5000 HZ SCT020 BKN100 35/24 Q1005 NOSIG
2019-06-24 08:00:00 Wind: West-Southwest (250°) 1.54 m/s - Visibility: 5000 m - Weather: Haze - Temperature: 35 °C - Dew point: 24 °C - Humidity: 52.8% - Pressure: 1005 hPa

Sorry, no flights used the airport in this database.